Time;durP1;ratioP1;P1;durP2;ratioP2;P2;SDS_P1;SDS_P2;PMS_P1;PMS_P2;Temp;Humidity;BMP_temperature;BMP_pressure;BME280_temperature;BME280_humidity;BME280_pressure;Samples;Min_cycle;Max_cycle;Signal;HPM_P1;HPM_P2
2022/06/12 00:02:11;;;;;;;3.80;2.90;;;;;;;12.81;84.21;98286.38;6219923;28;20761;-84
2022/06/12 00:05:17;;;;;;;4.40;2.80;;;;;;;12.78;84.25;98276.00;6252695;28;20296;-84
2022/06/12 00:08:21;;;;;;;4.70;3.07;;;;;;;12.80;83.97;98276.72;6203572;28;20234;-85
2022/06/12 00:11:26;;;;;;;3.07;2.80;;;;;;;12.76;84.25;98281.44;6235342;28;20237;-84
2022/06/12 00:14:29;;;;;;;3.87;3.27;;;;;;;12.71;84.38;98272.16;6223030;28;20239;-84
2022/06/12 00:17:31;;;;;;;5.93;3.20;;;;;;;12.66;84.38;98277.84;6218867;28;20281;-84
2022/06/12 00:20:33;;;;;;;4.17;2.67;;;;;;;12.63;84.20;98274.59;6227617;28;20236;-84
2022/06/12 00:23:47;;;;;;;3.30;3.00;;;;;;;12.59;84.53;98273.97;6225366;28;20694;-84
2022/06/12 00:26:52;;;;;;;3.00;2.80;;;;;;;12.54;84.49;98271.72;6236439;28;20712;-84
2022/06/12 00:29:54;;;;;;;3.43;3.13;;;;;;;12.52;84.53;98267.50;6236039;28;20223;-84
2022/06/12 00:32:56;;;;;;;3.40;3.10;;;;;;;12.46;84.66;98274.13;6234894;28;20227;-84
2022/06/12 00:35:58;;;;;;;3.70;3.13;;;;;;;12.40;84.82;98269.28;6236031;28;20227;-84
2022/06/12 00:39:01;;;;;;;4.90;2.63;;;;;;;12.36;85.04;98267.03;6235538;28;20242;-84
2022/06/12 00:42:06;;;;;;;3.53;2.80;;;;;;;12.34;85.10;98263.66;6235415;28;20323;-84
2022/06/12 00:45:29;;;;;;;3.00;2.40;;;;;;;12.29;84.93;98264.00;6226713;28;20247;-84
2022/06/12 00:48:35;;;;;;;4.10;3.43;;;;;;;12.23;85.06;98264.47;6220836;28;20239;-84
2022/06/12 00:51:38;;;;;;;4.07;3.17;;;;;;;12.18;84.96;98261.31;6230158;28;20221;-84
2022/06/12 00:54:45;;;;;;;4.47;2.83;;;;;;;12.16;85.47;98263.28;6240417;28;20715;-84
2022/06/12 00:57:47;;;;;;;4.77;3.37;;;;;;;12.12;85.24;98260.00;6240712;28;20322;-84
2022/06/12 01:08:24;;;;;;;3.00;2.70;;;;;;;11.92;85.88;98257.22;6204560;28;20318;-84
2022/06/12 01:11:27;;;;;;;5.63;2.97;;;;;;;11.86;85.43;98260.34;6199124;28;20254;-84
2022/06/12 01:14:41;;;;;;;4.23;3.00;;;;;;;11.78;85.76;98259.09;6215127;28;20272;-85
2022/06/12 01:17:44;;;;;;;4.47;2.93;;;;;;;11.78;85.73;98255.59;6218380;28;20775;-84
2022/06/12 01:20:58;;;;;;;3.00;2.73;;;;;;;11.75;85.76;98253.22;6236829;28;20297;-84
2022/06/12 01:24:19;;;;;;;3.87;2.90;;;;;;;11.70;85.55;98247.38;6246610;28;20232;-84
2022/06/12 01:27:42;;;;;;;4.40;3.13;;;;;;;11.65;85.75;98244.25;6212362;28;20778;-82
2022/06/12 01:30:59;;;;;;;4.80;2.83;;;;;;;11.61;85.91;98243.63;6252071;28;20234;-84
2022/06/12 01:34:13;;;;;;;3.47;3.13;;;;;;;11.63;85.91;98248.81;6262284;28;20248;-83
2022/06/12 01:38:05;;;;;;;3.27;3.03;;;;;;;11.62;85.97;98236.56;6223156;28;20232;-85
2022/06/12 01:41:29;;;;;;;2.73;2.53;;;;;;;11.62;86.04;98239.19;6112141;28;20243;-84
2022/06/12 01:44:56;;;;;;;3.40;3.10;;;;;;;11.56;85.98;98237.88;6151776;28;20264;-85
2022/06/12 01:48:04;;;;;;;4.43;3.10;;;;;;;11.50;86.15;98240.13;6158079;28;20324;-84
2022/06/12 01:51:08;;;;;;;5.80;2.93;;;;;;;11.53;86.15;98235.44;6172927;28;20218;-84
2022/06/12 01:54:27;;;;;;;3.40;2.80;;;;;;;11.53;86.04;98248.66;6157591;28;20224;-85
2022/06/12 01:57:37;;;;;;;4.47;2.87;;;;;;;11.48;86.14;98242.06;6174011;28;20229;-84
2022/06/12 02:00:45;;;;;;;3.20;2.90;;;;;;;11.46;86.14;98231.59;6172354;28;20241;-84
2022/06/12 02:04:10;;;;;;;3.57;2.87;;;;;;;11.44;86.29;98236.16;6171665;28;20711;-84
2022/06/12 02:07:43;;;;;;;5.87;2.83;;;;;;;11.38;86.24;98226.84;6172855;28;20611;-84
2022/06/12 02:10:56;;;;;;;6.53;2.83;;;;;;;11.33;86.25;98223.72;6155955;28;20841;-84
2022/06/12 02:14:01;;;;;;;4.00;2.87;;;;;;;11.29;86.24;98224.06;6173320;28;20237;-84
2022/06/12 02:17:06;;;;;;;3.77;2.87;;;;;;;11.27;86.43;98226.00;6212539;28;20253;-84
2022/06/12 02:20:12;;;;;;;6.80;3.10;;;;;;;11.27;86.40;98220.72;6213785;28;20711;-84
2022/06/12 02:23:27;;;;;;;3.57;3.20;;;;;;;11.25;86.52;98223.47;6214654;28;20320;-84
2022/06/12 02:27:09;;;;;;;2.77;2.57;;;;;;;11.19;86.45;98225.69;6232049;28;20633;-84
2022/06/12 02:30:24;;;;;;;4.33;3.40;;;;;;;11.16;86.78;98233.88;6213471;28;20356;-84
2022/06/12 02:33:36;;;;;;;3.00;2.70;;;;;;;11.14;86.66;98230.50;6230750;28;20223;-84
2022/06/12 02:36:45;;;;;;;3.47;2.80;;;;;;;11.09;86.74;98231.66;6214212;28;20287;-84
2022/06/12 02:39:55;;;;;;;3.57;2.73;;;;;;;11.11;86.95;98228.91;6189311;28;20234;-84
2022/06/12 02:42:59;;;;;;;3.33;3.03;;;;;;;11.12;86.74;98230.59;6212220;28;20749;-84
2022/06/12 02:46:14;;;;;;;4.23;2.93;;;;;;;11.13;86.84;98228.81;6214378;28;20321;-84
2022/06/12 02:49:18;;;;;;;3.33;2.47;;;;;;;11.10;86.91;98227.22;6212372;28;20241;-84
2022/06/12 02:52:57;;;;;;;2.90;2.67;;;;;;;11.08;86.90;98224.69;6214191;28;20293;-84
2022/06/12 02:56:23;;;;;;;6.17;3.07;;;;;;;11.06;87.21;98236.34;6228823;28;20248;-84
2022/06/12 02:59:47;;;;;;;3.40;3.10;;;;;;;11.05;87.05;98240.78;6229365;28;20239;-84
2022/06/12 04:02:24;;;;;;;4.40;3.40;;;;;;;11.40;87.05;98242.59;4447969;28;20235;-85
2022/06/12 04:05:41;;;;;;;3.40;3.10;;;;;;;11.42;87.35;98236.25;6194347;28;20241;-85
2022/06/12 04:08:50;;;;;;;3.23;2.97;;;;;;;11.43;87.21;98237.09;6203877;28;20314;-85
2022/06/12 04:11:57;;;;;;;4.07;3.37;;;;;;;11.47;87.01;98238.56;6210691;28;20236;-85
2022/06/12 04:15:16;;;;;;;3.13;2.90;;;;;;;11.52;87.53;98241.69;6181938;28;20229;-84
2022/06/12 04:18:18;;;;;;;3.33;3.03;;;;;;;11.56;87.36;98243.16;6203042;28;20734;-85
2022/06/12 04:21:31;;;;;;;4.37;3.17;;;;;;;11.64;87.60;98238.13;6211230;28;20760;-84
2022/06/12 04:24:45;;;;;;;3.10;2.83;;;;;;;11.70;87.62;98237.66;6210389;28;20238;-84
2022/06/12 04:27:47;;;;;;;4.03;3.03;;;;;;;11.76;87.76;98242.53;6210867;28;20231;-85
2022/06/12 04:30:50;;;;;;;3.30;3.10;;;;;;;11.79;87.67;98244.91;6192988;28;20266;-85
2022/06/12 04:34:13;;;;;;;3.83;3.07;;;;;;;11.82;87.47;98244.69;6202573;28;20228;-85
2022/06/12 04:37:19;;;;;;;3.30;3.10;;;;;;;11.88;87.86;98238.06;6203164;28;20313;-85
2022/06/12 04:40:27;;;;;;;3.73;3.43;;;;;;;11.96;87.20;98245.44;6200382;28;20781;-85
2022/06/12 04:43:30;;;;;;;4.13;3.60;;;;;;;12.05;87.90;98242.09;6228152;28;20328;-84
2022/06/12 04:46:34;;;;;;;3.23;2.93;;;;;;;12.09;87.32;98241.72;6204007;28;20715;-84
2022/06/12 04:49:37;;;;;;;3.40;3.10;;;;;;;12.14;87.31;98238.72;6194784;28;20236;-85
2022/06/12 04:52:39;;;;;;;3.93;3.60;;;;;;;12.18;87.46;98242.81;6199106;28;20230;-84
2022/06/12 04:55:41;;;;;;;4.00;3.63;;;;;;;12.27;87.48;98241.28;6186214;28;20386;-86
2022/06/12 04:58:44;;;;;;;3.47;3.17;;;;;;;12.38;87.47;98243.91;6209411;28;20718;-86
2022/06/12 05:01:49;;;;;;;3.20;2.90;;;;;;;12.47;87.09;98244.03;6137652;28;20773;-84
2022/06/12 05:04:52;;;;;;;3.43;3.23;;;;;;;12.54;87.50;98239.94;6186279;28;20236;-86
2022/06/12 05:07:54;;;;;;;4.27;3.90;;;;;;;12.61;87.21;98245.56;6202175;28;20319;-86
2022/06/12 05:10:57;;;;;;;4.93;3.70;;;;;;;12.71;87.77;98240.38;6218526;28;20256;-86
2022/06/12 05:13:59;;;;;;;3.87;3.57;;;;;;;12.78;87.72;98230.97;6221505;28;20322;-86
2022/06/12 05:17:09;;;;;;;6.13;3.80;;;;;;;12.87;87.67;98233.75;6234963;28;20246;-85
2022/06/12 05:20:26;;;;;;;3.90;3.60;;;;;;;12.94;88.03;98231.44;6212336;28;20369;-85
2022/06/12 05:23:28;;;;;;;6.03;3.77;;;;;;;13.04;88.17;98227.06;6202243;28;20231;-85
2022/06/12 05:26:33;;;;;;;4.13;3.70;;;;;;;13.15;88.54;98228.88;6209354;28;20269;-85
2022/06/12 05:29:37;;;;;;;4.70;4.30;;;;;;;13.26;88.60;98234.16;6212366;28;20238;-84
2022/06/12 05:32:41;;;;;;;7.80;4.17;;;;;;;13.39;89.38;98228.66;6195698;28;20761;-84
2022/06/12 05:35:43;;;;;;;6.50;4.87;;;;;;;13.53;89.73;98231.84;6228628;28;20427;-85
2022/06/12 05:38:46;;;;;;;4.30;3.97;;;;;;;13.67;89.96;98230.72;6213938;28;20332;-84
2022/06/12 05:41:49;;;;;;;6.27;4.30;;;;;;;13.81;90.80;98233.03;6213985;28;20350;-84
2022/06/12 05:44:51;;;;;;;4.57;4.27;;;;;;;13.98;90.09;98235.06;6214350;28;20749;-84
2022/06/12 05:48:10;;;;;;;4.80;4.40;;;;;;;14.11;89.89;98229.56;6198550;28;20374;-84
2022/06/12 05:51:16;;;;;;;4.87;4.07;;;;;;;14.24;90.16;98229.38;6213910;28;20235;-84
2022/06/12 05:54:18;;;;;;;4.30;3.80;;;;;;;14.43;89.76;98226.81;6214588;28;20622;-84
2022/06/12 05:57:21;;;;;;;5.50;4.20;;;;;;;14.58;89.31;98222.81;6215311;28;20204;-84
2022/06/12 06:00:28;;;;;;;8.00;3.70;;;;;;;14.72;88.44;98230.41;6214388;28;20315;-84
2022/06/12 06:03:30;;;;;;;4.27;3.83;;;;;;;14.86;88.30;98237.19;6244352;28;20323;-84
2022/06/12 06:06:37;;;;;;;4.50;3.30;;;;;;;15.03;87.74;98233.00;6237258;28;22150;-84
2022/06/12 06:09:40;;;;;;;4.63;2.97;;;;;;;15.23;86.96;98229.41;6236596;28;20230;-84
2022/06/12 06:12:42;;;;;;;3.97;3.17;;;;;;;15.42;85.96;98225.91;6236607;28;20231;-84
2022/06/12 06:15:45;;;;;;;3.87;3.30;;;;;;;15.50;85.68;98226.88;6255689;28;20262;-84
2022/06/12 06:18:48;;;;;;;3.83;3.43;;;;;;;15.72;84.71;98230.25;6221569;28;20703;-85
2022/06/12 06:21:50;;;;;;;5.17;3.13;;;;;;;16.01;83.71;98233.72;6254581;28;20349;-84
2022/06/12 06:24:52;;;;;;;4.53;2.80;;;;;;;16.24;82.34;98231.56;6252453;28;20278;-84
2022/06/12 06:27:54;;;;;;;3.50;2.80;;;;;;;16.54;80.18;98228.63;6231194;28;20825;-85
2022/06/12 06:30:56;;;;;;;6.20;2.77;;;;;;;16.88;79.00;98231.56;6254961;28;20778;-84
2022/06/12 06:33:59;;;;;;;3.30;3.00;;;;;;;17.19;77.55;98239.22;6237682;28;20322;-84
2022/06/12 06:37:01;;;;;;;4.67;2.97;;;;;;;17.45;75.55;98232.19;6237983;28;20231;-85
2022/06/12 06:40:05;;;;;;;4.33;2.57;;;;;;;17.70;74.64;98223.41;6238203;28;20235;-85
2022/06/12 06:43:08;;;;;;;2.43;2.23;;;;;;;18.06;71.77;98231.38;6237399;28;20231;-84
2022/06/12 06:46:16;;;;;;;4.37;2.30;;;;;;;18.45;69.96;98231.75;6229648;28;20701;-84
2022/06/12 06:49:19;;;;;;;2.30;2.10;;;;;;;18.80;67.86;98236.13;6238832;28;20388;-84
2022/06/12 06:52:22;;;;;;;2.83;2.13;;;;;;;19.15;66.35;98232.41;6254644;28;20223;-84
2022/06/12 06:55:23;;;;;;;3.03;2.27;;;;;;;19.51;65.02;98223.13;6238667;28;20357;-85
2022/06/12 06:58:30;;;;;;;2.83;2.20;;;;;;;19.82;63.74;98231.34;6236679;28;20324;-87
2022/06/12 07:01:53;;;;;;;2.93;2.03;;;;;;;19.92;64.17;98241.03;6237952;28;20258;-85
2022/06/12 07:04:55;;;;;;;2.70;2.00;;;;;;;20.15;62.10;98237.50;6185524;28;20232;-84
2022/06/12 07:07:58;;;;;;;3.17;2.10;;;;;;;20.41;60.23;98229.28;6186795;28;20255;-85
2022/06/12 07:11:00;;;;;;;2.33;1.70;;;;;;;20.72;60.12;98236.53;6185966;28;20216;-85
2022/06/12 07:14:02;;;;;;;4.37;2.00;;;;;;;20.98;59.77;98237.09;6202283;28;20789;-85
2022/06/12 07:17:04;;;;;;;1.90;1.80;;;;;;;21.19;58.75;98234.66;6170766;28;20220;-84
2022/06/12 07:20:09;;;;;;;2.30;2.10;;;;;;;21.51;58.74;98233.63;6169815;28;20733;-85
2022/06/12 07:23:12;;;;;;;4.80;2.07;;;;;;;21.82;57.35;98224.66;6187330;28;20240;-84
2022/06/12 07:26:26;;;;;;;1.77;1.67;;;;;;;22.13;56.84;98229.97;6201988;28;20323;-85
2022/06/12 07:29:28;;;;;;;2.47;1.60;;;;;;;22.39;56.73;98225.81;6202561;28;20380;-86
2022/06/12 07:32:30;;;;;;;1.83;1.60;;;;;;;22.73;55.26;98230.66;6186452;28;20310;-85
2022/06/12 07:35:37;;;;;;;1.87;1.70;;;;;;;23.07;54.73;98229.22;6193716;28;20231;-85
2022/06/12 07:38:41;;;;;;;3.30;1.77;;;;;;;23.29;53.44;98232.81;6236809;28;20777;-85
2022/06/12 07:42:03;;;;;;;2.63;1.60;;;;;;;23.41;53.78;98240.22;6222740;28;20719;-84
2022/06/12 07:45:06;;;;;;;2.77;1.80;;;;;;;23.59;53.68;98234.41;6227963;28;20727;-84
2022/06/12 07:48:08;;;;;;;2.50;1.57;;;;;;;23.77;52.41;98236.66;6221488;28;20345;-85
2022/06/12 07:51:15;;;;;;;2.90;1.70;;;;;;;24.03;51.37;98238.78;6252651;28;20211;-85
2022/06/12 07:54:18;;;;;;;2.60;1.47;;;;;;;24.27;51.37;98235.66;6236762;28;20211;-85
2022/06/12 07:57:21;;;;;;;3.23;1.70;;;;;;;24.40;50.35;98233.06;6236066;28;23291;-85
2022/06/12 08:00:24;;;;;;;1.70;1.60;;;;;;;24.77;49.86;98233.69;6219697;28;20284;-85
2022/06/12 08:03:28;;;;;;;2.00;1.70;;;;;;;25.06;49.02;98236.16;6245219;28;20254;-84
2022/06/12 08:06:31;;;;;;;2.10;1.90;;;;;;;25.06;48.10;98236.16;6228211;28;20243;-85
2022/06/12 08:09:34;;;;;;;2.17;1.70;;;;;;;25.37;48.47;98222.97;6235753;28;20254;-84
2022/06/12 08:12:38;;;;;;;2.40;1.77;;;;;;;25.64;47.47;98226.59;6252652;28;20285;-85
2022/06/12 08:15:44;;;;;;;2.20;1.40;;;;;;;25.92;46.55;98212.06;6235609;28;20752;-84
2022/06/12 08:18:47;;;;;;;1.77;1.67;;;;;;;26.20;46.52;98220.78;6218701;28;20235;-84
2022/06/12 08:21:49;;;;;;;2.70;1.70;;;;;;;26.41;47.00;98227.88;6241640;28;20239;-84
2022/06/12 08:24:51;;;;;;;1.60;1.50;;;;;;;26.67;46.51;98227.81;6227184;28;20710;-84
2022/06/12 08:27:53;;;;;;;2.22;1.60;;;;;;;26.87;45.50;98229.63;6218569;28;20649;-85
2022/06/12 08:30:56;;;;;;;2.58;2.05;;;;;;;26.86;41.28;98225.25;6201133;28;20235;-85
2022/06/12 08:34:03;;;;;;;2.35;1.63;;;;;;;26.86;42.21;98220.69;6220888;28;20301;-85
2022/06/12 08:37:13;;;;;;;2.28;1.77;;;;;;;27.07;42.76;98223.13;6211243;28;20227;-85
2022/06/12 08:40:24;;;;;;;2.70;1.63;;;;;;;26.92;42.52;98216.34;6206142;28;20284;-85
2022/06/12 08:43:49;;;;;;;2.20;1.73;;;;;;;27.39;40.38;98215.91;6223841;28;20239;-85
2022/06/12 08:47:17;;;;;;;2.05;1.65;;;;;;;27.64;41.08;98220.59;6210272;28;20244;-85
2022/06/12 08:50:43;;;;;;;2.90;1.70;;;;;;;27.32;38.20;98211.56;6211513;28;20220;-85
2022/06/12 08:53:52;;;;;;;2.00;1.70;;;;;;;27.19;41.36;98207.88;6237701;28;20235;-85
2022/06/12 08:56:59;;;;;;;1.60;1.50;;;;;;;27.27;41.01;98201.38;6235448;28;20223;-85
2022/06/12 09:00:15;;;;;;;2.58;1.80;;;;;;;27.93;41.66;98209.09;6234678;28;20219;-85
2022/06/12 09:03:22;;;;;;;1.90;1.80;;;;;;;28.11;38.84;98206.44;6210748;28;20239;-85
2022/06/12 09:06:51;;;;;;;3.15;1.98;;;;;;;28.50;38.69;98210.69;6229297;28;20219;-85
2022/06/12 09:09:59;;;;;;;3.25;2.95;;;;;;;28.57;40.35;98203.31;6206213;28;20279;-85
2022/06/12 09:13:15;;;;;;;3.08;2.80;;;;;;;28.89;40.75;98203.19;6191573;28;20235;-85
2022/06/12 09:16:29;;;;;;;2.58;1.85;;;;;;;29.17;39.14;98214.34;6208330;28;20278;-85
2022/06/12 09:19:44;;;;;;;2.00;1.58;;;;;;;29.21;37.27;98196.53;6207576;28;20236;-85
2022/06/12 09:23:06;;;;;;;3.80;1.77;;;;;;;29.35;38.43;98205.31;6227758;28;20232;-85
2022/06/12 09:26:40;;;;;;;2.63;1.98;;;;;;;29.73;38.11;98200.41;6194322;28;20235;-85
2022/06/12 09:30:02;;;;;;;2.05;1.85;;;;;;;29.96;36.67;98193.38;6229811;28;20346;-87
2022/06/12 09:33:28;;;;;;;2.55;1.70;;;;;;;29.76;35.46;98199.09;6206520;28;20232;-86
2022/06/12 09:36:45;;;;;;;1.80;1.70;;;;;;;29.17;38.13;98199.91;6229265;28;20369;-86
2022/06/12 09:40:01;;;;;;;2.25;1.83;;;;;;;29.40;36.83;98191.91;6213865;28;20230;-86
2022/06/12 09:43:09;;;;;;;2.00;1.85;;;;;;;29.45;36.44;98191.22;6198410;28;20322;-86
2022/06/12 09:46:26;;;;;;;1.80;1.70;;;;;;;29.55;36.56;98186.00;6235811;28;20267;-86
2022/06/12 09:49:36;;;;;;;2.17;1.52;;;;;;;29.99;34.94;98182.84;6217813;28;20228;-85
2022/06/12 09:53:11;;;;;;;2.22;1.65;;;;;;;30.38;36.80;98181.31;6216892;28;20235;-85
2022/06/12 09:56:20;;;;;;;2.20;2.00;;;;;;;30.77;36.86;98177.03;6190966;28;20343;-86
2022/06/12 09:59:42;;;;;;;1.88;1.75;;;;;;;30.57;33.31;98171.13;6219596;28;20236;-85
2022/06/12 10:02:59;;;;;;;1.67;1.50;;;;;;;30.52;35.32;98165.59;6205844;28;20279;-85
2022/06/12 10:06:36;;;;;;;1.95;1.50;;;;;;;31.07;32.31;98155.00;6200399;28;20801;-85
2022/06/12 10:09:45;;;;;;;3.05;1.65;;;;;;;31.46;35.58;98155.22;6213509;28;20707;-85
2022/06/12 10:12:51;;;;;;;1.73;1.58;;;;;;;31.92;35.01;98150.59;6207066;28;20251;-86
2022/06/12 10:16:02;;;;;;;1.75;1.60;;;;;;;31.83;33.33;98158.38;6214233;28;20735;-86
2022/06/12 10:19:43;;;;;;;1.83;1.52;;;;;;;31.93;32.49;98144.91;6231064;28;20305;-86
2022/06/12 10:22:49;;;;;;;1.85;1.35;;;;;;;32.35;30.25;98141.72;6196970;28;20240;-86
2022/06/12 10:25:58;;;;;;;3.33;1.75;;;;;;;31.61;30.68;98141.03;6214705;28;20316;-86
2022/06/12 10:29:11;;;;;;;2.47;1.60;;;;;;;31.37;30.83;98134.88;6197934;28;20279;-85
2022/06/12 10:32:20;;;;;;;1.63;1.30;;;;;;;31.73;32.87;98131.75;6213478;28;20285;-85
2022/06/12 10:35:24;;;;;;;2.58;1.73;;;;;;;31.64;30.86;98137.84;6214150;28;20299;-85
2022/06/12 10:38:31;;;;;;;1.40;1.30;;;;;;;31.84;32.32;98138.19;6213300;28;20325;-85
2022/06/12 10:41:40;;;;;;;1.48;1.38;;;;;;;32.39;32.54;98126.47;6230897;28;20224;-85
2022/06/12 10:44:52;;;;;;;1.60;1.50;;;;;;;32.87;33.08;98126.59;6214243;28;20319;-85
2022/06/12 10:47:58;;;;;;;1.33;1.23;;;;;;;32.99;31.56;98120.97;6246047;28;20235;-85
2022/06/12 10:51:21;;;;;;;2.47;1.58;;;;;;;33.47;30.25;98119.31;6214265;28;20227;-86
2022/06/12 10:54:27;;;;;;;2.47;1.50;;;;;;;33.54;28.84;98109.78;6237183;28;20219;-85
2022/06/12 10:57:37;;;;;;;1.25;1.15;;;;;;;33.29;27.05;98104.91;6237640;28;20220;-86
2022/06/12 11:00:43;;;;;;;1.63;1.52;;;;;;;33.12;29.53;98108.81;6233822;28;20231;-85
2022/06/12 11:04:04;;;;;;;1.90;1.35;;;;;;;33.50;30.45;98105.13;6252397;28;20348;-86
2022/06/12 11:07:14;;;;;;;1.50;1.10;;;;;;;33.40;27.85;98099.53;6213394;28;20239;-86
2022/06/12 11:10:25;;;;;;;1.13;1.10;;;;;;;33.87;29.37;98094.22;6230900;28;20322;-85
2022/06/12 11:13:42;;;;;;;2.25;1.20;;;;;;;34.26;29.87;98092.03;6212699;28;20346;-85
2022/06/12 11:17:12;;;;;;;2.15;1.40;;;;;;;34.40;25.69;98082.25;6230594;28;20228;-85
2022/06/12 11:20:30;;;;;;;2.30;1.30;;;;;;;33.60;28.41;98089.59;6230420;28;20242;-85
2022/06/12 11:24:13;;;;;;;1.63;1.30;;;;;;;34.19;27.34;98077.72;6229330;28;20266;-86
2022/06/12 11:27:53;;;;;;;1.95;1.40;;;;;;;33.60;26.52;98072.34;6212390;28;20228;-86
2022/06/12 11:31:25;;;;;;;1.20;1.10;;;;;;;34.23;28.75;98076.09;6130981;28;20266;-86
2022/06/12 11:35:05;;;;;;;1.95;1.33;;;;;;;33.88;27.22;98076.69;6166304;28;20324;-86
2022/06/12 11:38:59;;;;;;;1.20;1.10;;;;;;;34.17;29.90;98068.94;6149741;28;20262;-85
2022/06/12 11:42:17;;;;;;;4.03;1.42;;;;;;;33.54;23.17;98065.19;6137937;28;20241;-86
2022/06/12 11:45:39;;;;;;;2.53;1.10;;;;;;;33.40;24.03;98059.31;6154273;28;20206;-86
2022/06/12 11:48:59;;;;;;;1.50;1.15;;;;;;;33.08;24.29;98062.00;6170037;28;20236;-86
2022/06/12 11:52:36;;;;;;;2.53;1.30;;;;;;;33.22;24.34;98059.69;6169555;28;20721;-85
2022/06/12 11:56:03;;;;;;;1.33;1.20;;;;;;;33.49;25.21;98051.44;6136368;28;20234;-85
2022/06/12 11:59:34;;;;;;;1.88;1.27;;;;;;;33.58;24.43;98047.13;6153278;28;20254;-85
2022/06/12 12:02:44;;;;;;;2.25;1.10;;;;;;;33.45;26.00;98042.09;6169040;28;20331;-86
2022/06/12 12:05:55;;;;;;;1.13;1.00;;;;;;;33.62;24.06;98049.09;6178207;28;20216;-86
2022/06/12 12:08:57;;;;;;;1.50;1.00;;;;;;;33.21;24.52;98047.06;6227620;28;20228;-86
2022/06/12 12:12:09;;;;;;;1.63;1.25;;;;;;;33.53;24.49;98036.16;6211675;28;20318;-85
2022/06/12 12:15:22;;;;;;;1.45;1.10;;;;;;;34.00;25.80;98049.94;6252260;28;20322;-86
2022/06/12 12:18:45;;;;;;;1.13;1.00;;;;;;;34.37;25.54;98053.44;6235814;28;20230;-86
2022/06/12 12:21:57;;;;;;;2.25;1.50;;;;;;;34.46;24.51;98040.06;6211884;28;20227;-86
2022/06/12 12:25:13;;;;;;;2.17;1.25;;;;;;;34.10;23.71;98036.28;6216210;28;20754;-86
2022/06/12 12:28:37;;;;;;;4.00;1.48;;;;;;;33.14;25.12;98041.78;6234935;28;20227;-85
2022/06/12 12:31:39;;;;;;;1.30;1.30;;;;;;;33.14;25.54;98021.84;6236270;28;20726;-85
2022/06/12 12:34:44;;;;;;;1.38;1.20;;;;;;;33.08;27.04;98020.97;6252695;28;20233;-85
2022/06/12 12:41:40;;;;;;;1.45;1.20;;;;;;;33.50;26.47;98023.00;6243364;28;20231;-86
2022/06/12 12:44:42;;;;;;;1.98;1.40;;;;;;;33.79;26.87;98023.50;6253801;28;20230;-85
2022/06/12 12:47:44;;;;;;;1.90;1.10;;;;;;;34.51;25.52;98023.63;6256882;28;20229;-86
2022/06/12 12:50:53;;;;;;;1.40;1.30;;;;;;;34.60;25.27;98016.53;6240061;28;20313;-86
2022/06/12 12:54:12;;;;;;;1.55;1.20;;;;;;;34.25;24.56;98010.91;6234686;28;20767;-86
2022/06/12 12:57:17;;;;;;;1.70;1.33;;;;;;;34.42;25.06;98008.81;6240229;28;20364;-86
2022/06/12 13:00:19;;;;;;;2.65;1.20;;;;;;;34.81;25.33;98003.72;6239968;28;20306;-86
2022/06/12 13:03:28;;;;;;;1.10;1.10;;;;;;;35.13;24.87;98001.59;6210189;28;20691;-86
2022/06/12 13:06:39;;;;;;;3.10;1.35;;;;;;;34.96;24.65;97998.25;6207252;28;20236;-86
2022/06/12 13:09:47;;;;;;;1.52;1.35;;;;;;;34.46;27.47;98007.16;6219185;28;20292;-86
2022/06/12 13:13:19;;;;;;;1.23;1.17;;;;;;;34.97;26.52;98005.41;6240357;28;20685;-86
2022/06/12 13:16:28;;;;;;;1.20;1.10;;;;;;;35.51;25.79;97994.75;6232369;28;20699;-86
2022/06/12 13:20:08;;;;;;;1.27;1.17;;;;;;;36.06;26.24;97993.00;6231854;28;20243;-86
2022/06/12 13:23:31;;;;;;;1.80;1.40;;;;;;;36.40;22.27;97993.19;6231750;28;20238;-86
2022/06/12 13:26:36;;;;;;;1.10;1.10;;;;;;;36.03;25.50;97976.25;6224547;28;20229;-86
2022/06/12 13:29:44;;;;;;;1.92;1.58;;;;;;;35.71;24.58;97977.41;6230884;28;20224;-86
2022/06/12 13:32:46;;;;;;;4.97;1.38;;;;;;;36.03;25.02;97973.53;6233151;28;20715;-85
2022/06/12 13:36:09;;;;;;;1.33;1.23;;;;;;;36.45;24.05;97967.56;6192037;28;20235;-86
2022/06/12 13:39:26;;;;;;;2.13;1.58;;;;;;;35.92;25.21;97969.16;6210020;28;20692;-85
2022/06/12 13:42:30;;;;;;;1.33;1.23;;;;;;;35.97;26.98;97966.38;6216639;28;20233;-86
2022/06/12 13:45:32;;;;;;;1.40;1.30;;;;;;;36.37;27.69;97960.75;6206402;28;20228;-86
2022/06/12 13:48:36;;;;;;;1.15;1.05;;;;;;;36.09;24.55;97961.38;6179265;28;20306;-86
2022/06/12 13:51:49;;;;;;;1.27;1.17;;;;;;;35.96;24.13;97951.00;6209430;28;20726;-86
2022/06/12 13:54:51;;;;;;;1.40;1.30;;;;;;;36.58;24.13;97954.03;6190630;28;20362;-86
2022/06/12 13:57:58;;;;;;;2.92;1.67;;;;;;;37.43;24.48;97955.66;6195730;28;20219;-85
2022/06/12 14:01:16;;;;;;;2.13;1.40;;;;;;;38.35;21.65;97950.78;6222280;28;20717;-86
2022/06/12 14:04:27;;;;;;;1.92;1.25;;;;;;;39.32;22.19;97952.97;6209736;28;20228;-85
2022/06/12 14:07:34;;;;;;;4.25;1.30;;;;;;;40.27;19.69;97951.47;6215254;28;20224;-86
2022/06/12 14:10:40;;;;;;;1.73;1.20;;;;;;;41.37;19.21;97949.22;6189570;28;20611;-85
2022/06/12 14:13:46;;;;;;;2.50;1.80;;;;;;;42.71;16.76;97946.81;6196642;28;20220;-86
2022/06/12 14:16:48;;;;;;;2.28;1.42;;;;;;;43.33;16.32;97944.53;6249575;28;20233;-86
2022/06/12 14:19:57;;;;;;;1.38;1.20;;;;;;;44.24;15.76;97934.09;6244495;28;20230;-85
2022/06/12 14:23:24;;;;;;;4.70;1.70;;;;;;;44.92;15.30;97948.75;6255658;28;20737;-86
2022/06/12 14:26:41;;;;;;;2.28;1.38;;;;;;;45.56;14.64;97943.53;6197653;28;20305;-86
2022/06/12 14:29:45;;;;;;;1.48;1.38;;;;;;;45.99;14.63;97943.06;6213931;28;20224;-86
2022/06/12 14:32:47;;;;;;;3.53;1.55;;;;;;;46.03;15.10;97935.59;6211107;28;20543;-86
2022/06/12 14:35:49;;;;;;;2.97;1.55;;;;;;;45.92;15.30;97935.25;6223447;28;20761;-86
2022/06/12 14:38:51;;;;;;;2.83;1.40;;;;;;;45.69;14.95;97939.63;6219307;28;20305;-86
2022/06/12 14:41:59;;;;;;;2.75;1.48;;;;;;;46.10;14.67;97938.63;6201174;28;20235;-86
2022/06/12 14:45:01;;;;;;;2.17;1.73;;;;;;;46.32;14.06;97922.59;6213772;28;20322;-86
2022/06/12 14:48:03;;;;;;;1.73;1.40;;;;;;;46.60;13.53;97920.69;6245549;28;20672;-86
2022/06/12 14:51:06;;;;;;;2.20;1.60;;;;;;;46.90;14.21;97924.81;6214588;28;20207;-86
2022/06/12 14:54:08;;;;;;;1.55;1.45;;;;;;;46.92;14.23;97922.44;6230431;28;20224;-86
2022/06/12 14:57:14;;;;;;;2.28;1.60;;;;;;;46.91;12.89;97920.03;6221239;28;20347;-85
2022/06/12 15:00:24;;;;;;;2.00;1.30;;;;;;;46.22;14.66;97927.44;6233004;28;20291;-86
2022/06/12 15:03:28;;;;;;;1.50;1.40;;;;;;;46.32;14.00;97909.47;6215008;28;20244;-85
2022/06/12 15:06:30;;;;;;;1.90;1.40;;;;;;;45.01;16.56;97919.63;6220698;28;20227;-86
2022/06/12 15:09:32;;;;;;;2.45;1.63;;;;;;;44.97;14.86;97907.53;6229301;28;20219;-86
2022/06/12 15:12:34;;;;;;;1.40;1.30;;;;;;;45.54;14.48;97896.47;6228645;28;20238;-86
2022/06/12 15:15:36;;;;;;;1.73;1.55;;;;;;;45.23;15.45;97905.31;6230523;28;20764;-85
2022/06/12 15:18:40;;;;;;;2.22;1.60;;;;;;;45.18;14.89;97894.41;6229521;28;20254;-85
2022/06/12 15:21:46;;;;;;;1.90;1.77;;;;;;;45.55;15.55;97889.75;6229051;28;20245;-86
2022/06/12 15:24:49;;;;;;;2.83;1.65;;;;;;;45.08;17.33;97891.19;6228934;28;20236;-86
2022/06/12 15:31:15;;;;;;;2.28;1.70;;;;;;;44.97;15.32;97876.06;6230183;28;20385;-85
2022/06/12 15:34:17;;;;;;;1.20;1.10;;;;;;;44.79;16.58;97881.00;6237749;28;20235;-86
2022/06/12 15:37:20;;;;;;;1.35;1.23;;;;;;;44.65;17.81;97872.88;6255177;28;20233;-86
2022/06/12 15:40:22;;;;;;;2.58;1.30;;;;;;;44.78;17.56;97866.25;6236938;28;20780;-85
2022/06/12 15:43:24;;;;;;;2.45;1.52;;;;;;;44.70;17.85;97866.31;6233886;28;20669;-86
2022/06/12 15:46:26;;;;;;;2.33;1.45;;;;;;;40.58;21.95;97868.59;6254106;28;20440;-86
2022/06/12 15:49:28;;;;;;;5.97;1.75;;;;;;;37.42;26.89;97860.38;6253964;28;20602;-85
2022/06/12 15:52:31;;;;;;;3.63;1.60;;;;;;;39.66;24.10;97855.91;6254898;28;20273;-85
2022/06/12 15:55:33;;;;;;;2.15;1.30;;;;;;;40.80;22.01;97849.25;6227724;28;20603;-85
2022/06/12 15:58:37;;;;;;;1.77;1.50;;;;;;;41.46;21.45;97836.44;6229159;28;20572;-85
2022/06/12 16:01:51;;;;;;;2.80;1.50;;;;;;;41.61;20.88;97844.38;6211479;28;20323;-85
2022/06/12 16:04:55;;;;;;;4.95;1.70;;;;;;;42.00;20.98;97843.53;6212283;28;20826;-85
2022/06/12 16:07:57;;;;;;;3.35;1.85;;;;;;;41.99;20.76;97836.34;6220905;28;20241;-86
2022/06/12 16:11:00;;;;;;;1.95;1.50;;;;;;;41.91;21.02;97837.13;6236563;28;20223;-85